sensor_id;sensor_type;location;lat;lon;timestamp;P1;P2;P0
55076;PMS7003;40971;44.702;11.030;2023-03-01T00:07:45;22.86;22.43;14.86
55076;PMS7003;40971;44.702;11.030;2023-03-01T00:17:47;29.33;27.67;14.67
55076;PMS7003;40971;44.702;11.030;2023-03-01T00:27:50;24.00;23.14;16.29
55076;PMS7003;40971;44.702;11.030;2023-03-01T00:37:53;23.83;21.50;15.50
55076;PMS7003;40971;44.702;11.030;2023-03-01T00:47:59;28.67;27.33;19.00
55076;PMS7003;40971;44.702;11.030;2023-03-01T00:58:01;26.33;21.00;12.67
55076;PMS7003;40971;44.702;11.030;2023-03-01T01:08:04;26.14;26.14;17.14
55076;PMS7003;40971;44.702;11.030;2023-03-01T01:18:07;22.67;21.33;15.00
55076;PMS7003;40971;44.702;11.030;2023-03-01T01:28:11;27.43;20.43;13.86
55076;PMS7003;40971;44.702;11.030;2023-03-01T01:38:13;23.33;21.00;15.00
55076;PMS7003;40971;44.702;11.030;2023-03-01T01:48:18;25.86;25.71;16.57
55076;PMS7003;40971;44.702;11.030;2023-03-01T01:58:23;37.67;33.00;19.00
55076;PMS7003;40971;44.702;11.030;2023-03-01T02:08:29;24.00;21.67;17.67
55076;PMS7003;40971;44.702;11.030;2023-03-01T02:18:33;36.00;30.00;20.00
55076;PMS7003;40971;44.702;11.030;2023-03-01T02:28:35;27.67;25.67;19.00
55076;PMS7003;40971;44.702;11.030;2023-03-01T02:38:39;25.33;23.67;17.33
55076;PMS7003;40971;44.702;11.030;2023-03-01T02:48:45;27.33;24.67;15.00
55076;PMS7003;40971;44.702;11.030;2023-03-01T02:58:52;23.67;20.67;15.00
55076;PMS7003;40971;44.702;11.030;2023-03-01T03:08:56;30.38;28.50;19.50
55076;PMS7003;40971;44.702;11.030;2023-03-01T03:18:57;38.67;36.00;23.33
55076;PMS7003;40971;44.702;11.030;2023-03-01T03:29:06;28.33;25.33;16.67
55076;PMS7003;40971;44.702;11.030;2023-03-01T03:39:07;33.67;31.00;18.67
55076;PMS7003;40971;44.702;11.030;2023-03-01T03:49:09;25.67;25.67;19.00
55076;PMS7003;40971;44.702;11.030;2023-03-01T03:59:10;30.67;29.33;19.00
55076;PMS7003;40971;44.702;11.030;2023-03-01T04:09:13;38.20;37.60;26.60
55076;PMS7003;40971;44.702;11.030;2023-03-01T04:19:14;33.67;30.33;20.33
55076;PMS7003;40971;44.702;11.030;2023-03-01T04:29:16;33.00;30.80;22.40
55076;PMS7003;40971;44.702;11.030;2023-03-01T04:39:20;28.71;28.14;20.71
55076;PMS7003;40971;44.702;11.030;2023-03-01T04:49:21;35.80;33.00;17.60
55076;PMS7003;40971;44.702;11.030;2023-03-01T04:59:25;23.86;23.57;15.57
55076;PMS7003;40971;44.702;11.030;2023-03-01T05:09:27;31.33;31.33;16.67
55076;PMS7003;40971;44.702;11.030;2023-03-01T05:19:31;25.50;25.50;16.33
55076;PMS7003;40971;44.702;11.030;2023-03-01T05:29:35;34.50;33.75;21.50
55076;PMS7003;40971;44.702;11.030;2023-03-01T05:39:37;33.67;29.33;18.67
55076;PMS7003;40971;44.702;11.030;2023-03-01T05:49:41;28.20;26.00;19.40
55076;PMS7003;40971;44.702;11.030;2023-03-01T05:59:43;31.67;31.00;21.00
55076;PMS7003;40971;44.702;11.030;2023-03-01T06:09:47;29.80;29.80;20.40
55076;PMS7003;40971;44.702;11.030;2023-03-01T06:19:48;27.67;25.67;18.00
55076;PMS7003;40971;44.702;11.030;2023-03-01T06:29:49;24.67;22.00;16.67
55076;PMS7003;40971;44.702;11.030;2023-03-01T06:39:52;26.60;26.60;15.80
55076;PMS7003;40971;44.702;11.030;2023-03-01T06:49:53;23.00;20.00;17.33
55076;PMS7003;40971;44.702;11.030;2023-03-01T06:59:56;31.50;28.83;18.00
55076;PMS7003;40971;44.702;11.030;2023-03-01T07:10:00;26.00;24.43;15.14
55076;PMS7003;40971;44.702;11.030;2023-03-01T07:20:03;27.29;22.29;15.00
55076;PMS7003;40971;44.702;11.030;2023-03-01T07:30:06;29.33;26.00;16.67
55076;PMS7003;40971;44.702;11.030;2023-03-01T07:40:09;27.67;23.33;13.67
55076;PMS7003;40971;44.702;11.030;2023-03-01T07:50:11;25.67;23.33;16.67
55076;PMS7003;40971;44.702;11.030;2023-03-01T08:00:15;32.33;26.00;17.33
55076;PMS7003;40971;44.702;11.030;2023-03-01T08:10:18;28.71;27.29;16.00
55076;PMS7003;40971;44.702;11.030;2023-03-01T08:20:19;24.00;22.67;16.00
55076;PMS7003;40971;44.702;11.030;2023-03-01T08:30:22;30.67;26.33;15.67
55076;PMS7003;40971;44.702;11.030;2023-03-01T08:40:25;29.33;25.00;16.67
55076;PMS7003;40971;44.702;11.030;2023-03-01T08:50:26;30.67;26.33;19.00
55076;PMS7003;40971;44.702;11.030;2023-03-01T09:00:28;32.67;28.67;18.67
55076;PMS7003;40971;44.702;11.030;2023-03-01T09:10:30;38.00;31.75;19.00
55076;PMS7003;40971;44.702;11.030;2023-03-01T09:20:32;33.67;27.67;21.00
55076;PMS7003;40971;44.702;11.030;2023-03-01T09:30:37;31.67;31.56;21.44
55076;PMS7003;40971;44.702;11.030;2023-03-01T09:40:43;27.33;27.33;19.33
55076;PMS7003;40971;44.702;11.030;2023-03-01T09:50:47;27.67;25.67;18.00
55076;PMS7003;40971;44.702;11.030;2023-03-01T10:00:51;38.13;35.38;23.25
55076;PMS7003;40971;44.702;11.030;2023-03-01T10:10:53;41.33;37.00;25.00
55076;PMS7003;40971;44.702;11.030;2023-03-01T10:20:56;37.00;31.00;21.50
55076;PMS7003;40971;44.702;11.030;2023-03-01T10:30:59;42.00;39.50;25.50
55076;PMS7003;40971;44.702;11.030;2023-03-01T10:41:05;35.20;33.80;20.80
55076;PMS7003;40971;44.702;11.030;2023-03-01T10:51:12;39.00;35.33;24.00
55076;PMS7003;40971;44.702;11.030;2023-03-01T11:21:41;30.00;28.00;19.67
55076;PMS7003;40971;44.702;11.030;2023-03-01T11:31:54;27.33;27.33;21.00
55076;PMS7003;40971;44.702;11.030;2023-03-01T11:42:11;30.00;25.40;17.20
55076;PMS7003;40971;44.702;11.030;2023-03-01T12:13:23;28.67;28.00;18.67
55076;PMS7003;40971;44.702;11.030;2023-03-01T12:44:29;28.80;27.40;17.60
55076;PMS7003;40971;44.702;11.030;2023-03-01T12:54:51;32.33;30.00;18.33
55076;PMS7003;40971;44.702;11.030;2023-03-01T13:05:00;31.20;27.80;18.60
55076;PMS7003;40971;44.702;11.030;2023-03-01T13:25:25;27.67;27.33;19.00
55076;PMS7003;40971;44.702;11.030;2023-03-01T13:55:45;25.43;24.43;14.14
55076;PMS7003;40971;44.702;11.030;2023-03-01T14:05:58;22.00;22.00;14.33
55076;PMS7003;40971;44.702;11.030;2023-03-01T14:16:12;20.00;19.67;13.67
55076;PMS7003;40971;44.702;11.030;2023-03-01T14:26:28;26.00;26.00;19.00
55076;PMS7003;40971;44.702;11.030;2023-03-01T14:36:33;30.67;26.67;16.67
55076;PMS7003;40971;44.702;11.030;2023-03-01T14:46:37;29.33;28.67;18.00
55076;PMS7003;40971;44.702;11.030;2023-03-01T14:56:44;26.67;26.67;18.33
55076;PMS7003;40971;44.702;11.030;2023-03-01T15:06:50;25.00;25.00;18.67
55076;PMS7003;40971;44.702;11.030;2023-03-01T15:16:52;30.00;27.50;20.00
55076;PMS7003;40971;44.702;11.030;2023-03-01T15:26:57;30.57;26.57;16.86
55076;PMS7003;40971;44.702;11.030;2023-03-01T15:37:04;28.00;27.00;17.33
55076;PMS7003;40971;44.702;11.030;2023-03-01T15:57:26;29.60;28.40;18.20
55076;PMS7003;40971;44.702;11.030;2023-03-01T16:07:28;30.33;29.33;19.00
55076;PMS7003;40971;44.702;11.030;2023-03-01T16:17:34;18.71;16.00;8.43
55076;PMS7003;40971;44.702;11.030;2023-03-01T16:27:36;32.33;30.33;21.00
55076;PMS7003;40971;44.702;11.030;2023-03-01T16:37:39;31.00;27.67;19.00
55076;PMS7003;40971;44.702;11.030;2023-03-01T16:47:41;33.00;31.00;19.00
55076;PMS7003;40971;44.702;11.030;2023-03-01T16:57:44;25.57;25.00;18.29
55076;PMS7003;40971;44.702;11.030;2023-03-01T17:07:47;37.33;35.67;25.00
55076;PMS7003;40971;44.702;11.030;2023-03-01T17:17:48;35.00;31.67;20.67
55076;PMS7003;40971;44.702;11.030;2023-03-01T17:27:52;36.00;32.60;20.60
55076;PMS7003;40971;44.702;11.030;2023-03-01T17:37:53;34.67;33.33;21.00
55076;PMS7003;40971;44.702;11.030;2023-03-01T17:47:55;39.20;34.20;24.40
55076;PMS7003;40971;44.702;11.030;2023-03-01T17:57:57;47.50;41.00;21.50
55076;PMS7003;40971;44.702;11.030;2023-03-01T18:07:59;36.60;33.60;21.40
55076;PMS7003;40971;44.702;11.030;2023-03-01T18:18:02;40.00;37.40;23.20
55076;PMS7003;40971;44.702;11.030;2023-03-01T18:28:06;37.50;36.38;23.00
55076;PMS7003;40971;44.702;11.030;2023-03-01T18:38:07;43.00;38.00;24.00
55076;PMS7003;40971;44.702;11.030;2023-03-01T18:48:12;32.00;29.25;21.13
55076;PMS7003;40971;44.702;11.030;2023-03-01T18:58:16;41.75;36.50;23.75
55076;PMS7003;40971;44.702;11.030;2023-03-01T19:08:18;41.80;39.80;24.60
55076;PMS7003;40971;44.702;11.030;2023-03-01T19:18:20;41.50;41.50;26.00
55076;PMS7003;40971;44.702;11.030;2023-03-01T19:28:21;12.00;8.00;0.00
55076;PMS7003;40971;44.702;11.030;2023-03-01T19:38:22;46.00;43.67;31.00
55076;PMS7003;40971;44.702;11.030;2023-03-01T19:48:24;43.40;38.20;24.80
55076;PMS7003;40971;44.702;11.030;2023-03-01T19:58:30;44.78;43.44;30.00
55076;PMS7003;40971;44.702;11.030;2023-03-01T20:08:31;39.00;37.00;28.00
55076;PMS7003;40971;44.702;11.030;2023-03-01T20:18:34;47.00;44.20;30.40
55076;PMS7003;40971;44.702;11.030;2023-03-01T20:28:36;40.20;38.20;24.40
55076;PMS7003;40971;44.702;11.030;2023-03-01T20:38:38;50.00;42.00;26.00
55076;PMS7003;40971;44.702;11.030;2023-03-01T20:48:40;45.40;44.00;28.40
55076;PMS7003;40971;44.702;11.030;2023-03-01T20:58:43;42.67;39.67;27.33
55076;PMS7003;40971;44.702;11.030;2023-03-01T21:08:44;37.40;37.40;25.80
55076;PMS7003;40971;44.702;11.030;2023-03-01T21:18:47;38.20;37.80;25.60
55076;PMS7003;40971;44.702;11.030;2023-03-01T21:28:52;44.20;42.80;26.80
55076;PMS7003;40971;44.702;11.030;2023-03-01T21:38:57;46.25;43.75;29.50
55076;PMS7003;40971;44.702;11.030;2023-03-01T21:49:01;39.50;38.00;27.00
55076;PMS7003;40971;44.702;11.030;2023-03-01T21:59:06;52.00;47.80;30.00
55076;PMS7003;40971;44.702;11.030;2023-03-01T22:09:13;39.00;36.33;26.33
55076;PMS7003;40971;44.702;11.030;2023-03-01T22:19:20;50.00;45.80;30.00
55076;PMS7003;40971;44.702;11.030;2023-03-01T22:29:24;53.00;48.00;28.00
55076;PMS7003;40971;44.702;11.030;2023-03-01T22:39:29;48.00;45.20;30.80
55076;PMS7003;40971;44.702;11.030;2023-03-01T22:49:30;54.67;48.67;31.33
55076;PMS7003;40971;44.702;11.030;2023-03-01T22:59:33;44.40;42.20;31.20
55076;PMS7003;40971;44.702;11.030;2023-03-01T23:09:37;43.50;42.13;28.75
55076;PMS7003;40971;44.702;11.030;2023-03-01T23:19:38;53.50;50.00;34.00
55076;PMS7003;40971;44.702;11.030;2023-03-01T23:29:41;47.67;42.67;27.67
55076;PMS7003;40971;44.702;11.030;2023-03-01T23:39:44;50.20;44.20;27.00
55076;PMS7003;40971;44.702;11.030;2023-03-01T23:49:49;49.11;44.33;27.11
55076;PMS7003;40971;44.702;11.030;2023-03-01T23:59:51;47.00;45.00;31.00
